createdAt,value
2023-02-16T00:01:52.950Z,1.30
2023-02-16T00:04:23.508Z,1.30
2023-02-16T00:06:51.567Z,1.30
2023-02-16T00:09:19.778Z,1.20
2023-02-16T00:12:06.442Z,1.20
2023-02-16T00:14:36.386Z,1.20
2023-02-16T00:17:04.747Z,1.10
2023-02-16T00:19:35.806Z,1.10
2023-02-16T00:22:04.150Z,1.10
2023-02-16T00:24:31.914Z,1.20
2023-02-16T00:27:00.585Z,1.20
2023-02-16T00:29:37.482Z,1.10
2023-02-16T00:32:06.286Z,1.20
2023-02-16T00:34:35.372Z,1.20
2023-02-16T00:37:08.041Z,1.20
2023-02-16T00:39:36.591Z,1.10
2023-02-16T00:42:06.702Z,1.20
2023-02-16T00:44:43.370Z,1.20
2023-02-16T00:47:19.993Z,1.20
2023-02-16T00:49:48.803Z,1.10
2023-02-16T00:52:38.051Z,1.00
2023-02-16T00:55:17.379Z,1.00
2023-02-16T00:57:47.271Z,1.00
2023-02-16T01:00:25.566Z,1.00
2023-02-16T01:02:55.460Z,1.00
2023-02-16T01:05:22.888Z,1.00
2023-02-16T01:08:08.862Z,1.00
2023-02-16T01:10:56.016Z,0.90
2023-02-16T01:13:25.008Z,0.90
2023-02-16T01:15:52.370Z,0.80
2023-02-16T01:18:21.174Z,0.80
2023-02-16T01:20:49.549Z,0.80
2023-02-16T01:23:16.600Z,0.80
2023-02-16T01:25:43.866Z,0.80
2023-02-16T01:28:20.627Z,0.80
2023-02-16T01:30:48.756Z,0.80
2023-02-16T01:33:16.106Z,0.80
2023-02-16T01:35:44.303Z,0.70
2023-02-16T01:38:26.341Z,0.70
2023-02-16T01:41:22.763Z,0.70
2023-02-16T01:43:59.199Z,0.60
2023-02-16T01:46:43.429Z,0.60
2023-02-16T01:49:15.426Z,0.60
2023-02-16T01:51:52.465Z,0.60
2023-02-16T01:54:58.277Z,0.60
2023-02-16T01:57:40.043Z,0.70
2023-02-16T02:00:22.567Z,0.60
2023-02-16T02:03:19.947Z,0.60
2023-02-16T02:05:49.943Z,0.60
2023-02-16T02:08:37.205Z,0.60
2023-02-16T02:11:14.409Z,0.50
2023-02-16T02:14:00.369Z,0.50
2023-02-16T02:16:28.583Z,0.40
2023-02-16T02:18:55.643Z,0.50
2023-02-16T02:22:03.819Z,0.40
2023-02-16T02:24:58.634Z,0.40
2023-02-16T02:27:27.351Z,0.40
2023-02-16T02:30:30.163Z,0.30
2023-02-16T02:33:12.305Z,0.30
2023-02-16T02:36:03.578Z,0.30
2023-02-16T02:38:53.853Z,0.30
2023-02-16T02:41:57.464Z,0.30
2023-02-16T02:44:27.174Z,0.30
2023-02-16T02:46:54.885Z,0.30
2023-02-16T02:49:22.325Z,0.30
2023-02-16T02:51:50.653Z,0.30
2023-02-16T02:54:43.660Z,0.30
2023-02-16T02:57:54.418Z,0.30
2023-02-16T03:00:51.923Z,0.30
2023-02-16T03:03:36.424Z,0.30
2023-02-16T03:06:08.556Z,0.30
2023-02-16T03:08:39.940Z,0.20
2023-02-16T03:11:32.864Z,0.20
2023-02-16T03:14:17.176Z,0.20
2023-02-16T03:17:18.338Z,0.20
2023-02-16T03:20:06.309Z,0.20
2023-02-16T03:22:54.002Z,0.20
2023-02-16T03:25:43.040Z,0.20
2023-02-16T03:28:31.052Z,0.20
2023-02-16T03:30:59.459Z,0.20
2023-02-16T03:33:28.009Z,0.30
2023-02-16T03:35:55.974Z,0.30
2023-02-16T03:38:23.148Z,0.30
2023-02-16T03:40:51.300Z,0.40
2023-02-16T03:43:18.543Z,0.40
2023-02-16T03:45:46.091Z,0.30
2023-02-16T03:48:13.544Z,0.20
2023-02-16T03:50:40.685Z,0.10
2023-02-16T03:53:07.953Z,0.10
2023-02-16T03:55:47.285Z,0.10
2023-02-16T03:58:20.004Z,0.20
2023-02-16T04:00:47.499Z,0.30
2023-02-16T04:03:15.226Z,0.30
2023-02-16T04:05:42.731Z,0.10
2023-02-16T04:08:10.832Z,0.10
2023-02-16T04:10:38.790Z,0.00
2023-02-16T04:13:05.990Z,-0.10
2023-02-16T04:15:33.609Z,-0.10
2023-02-16T04:18:01.490Z,-0.10
2023-02-16T04:20:31.821Z,-0.10
2023-02-16T04:22:59.069Z,-0.10
2023-02-16T04:25:26.341Z,0.00
2023-02-16T04:27:53.839Z,-0.10
2023-02-16T04:30:23.785Z,-0.10
2023-02-16T04:32:51.121Z,-0.10
2023-02-16T04:35:19.745Z,-0.10
2023-02-16T04:37:47.048Z,-0.20
2023-02-16T04:40:16.658Z,-0.20
2023-02-16T04:42:44.662Z,-0.30
2023-02-16T04:45:12.290Z,-0.30
2023-02-16T04:47:39.365Z,-0.30
2023-02-16T04:50:07.284Z,-0.30
2023-02-16T04:52:34.563Z,-0.40
2023-02-16T04:55:01.614Z,-0.40
2023-02-16T04:57:28.928Z,-0.40
2023-02-16T04:59:56.034Z,-0.30
2023-02-16T05:02:23.412Z,-0.40
2023-02-16T05:04:50.628Z,-0.40
2023-02-16T05:07:17.695Z,-0.40
2023-02-16T05:09:44.832Z,-0.40
2023-02-16T05:12:30.687Z,-0.50
2023-02-16T05:14:57.774Z,-0.50
2023-02-16T05:17:27.105Z,-0.50
2023-02-16T05:19:57.642Z,-0.60
2023-02-16T05:22:25.815Z,-0.60
2023-02-16T05:24:52.866Z,-0.60
2023-02-16T05:27:23.029Z,-0.60
2023-02-16T05:29:50.364Z,-0.60
2023-02-16T05:32:18.000Z,-0.50
2023-02-16T05:34:45.747Z,-0.50
2023-02-16T05:37:17.084Z,-0.50
2023-02-16T05:39:44.920Z,-0.50
2023-02-16T05:42:12.084Z,-0.40
2023-02-16T05:44:39.193Z,-0.50
2023-02-16T05:47:06.402Z,-0.50
2023-02-16T05:49:33.521Z,-0.50
2023-02-16T05:52:00.558Z,-0.60
2023-02-16T05:54:28.181Z,-0.60
2023-02-16T05:56:55.768Z,-0.60
2023-02-16T05:59:23.253Z,-0.60
2023-02-16T06:01:52.242Z,-0.60
2023-02-16T06:04:20.886Z,-0.60
2023-02-16T06:06:48.308Z,-0.60
2023-02-16T06:09:15.570Z,-0.60
2023-02-16T06:11:43.140Z,-0.50
2023-02-16T06:14:13.488Z,-0.50
2023-02-16T06:16:43.358Z,-0.40
2023-02-16T06:19:11.738Z,-0.40
2023-02-16T06:21:39.733Z,-0.30
2023-02-16T06:24:09.141Z,-0.30
2023-02-16T06:26:36.410Z,-0.20
2023-02-16T06:29:04.347Z,-0.10
2023-02-16T06:31:33.225Z,-0.10
2023-02-16T06:34:04.032Z,0.00
2023-02-16T06:36:31.745Z,0.10
2023-02-16T06:38:58.904Z,0.20
2023-02-16T06:41:34.583Z,0.30
2023-02-16T06:44:13.694Z,0.40
2023-02-16T06:46:42.753Z,0.40
2023-02-16T06:49:21.611Z,0.60
2023-02-16T06:51:49.818Z,0.60
2023-02-16T06:54:18.089Z,0.70
2023-02-16T06:56:45.531Z,0.90
2023-02-16T06:59:13.060Z,1.00
2023-02-16T07:01:40.107Z,1.10
2023-02-16T07:04:07.309Z,1.20
2023-02-16T07:06:34.587Z,1.30
2023-02-16T07:09:01.766Z,1.40
2023-02-16T07:11:29.426Z,1.50
2023-02-16T07:13:56.739Z,1.60
2023-02-16T07:16:24.365Z,1.70
2023-02-16T07:18:51.644Z,1.80
2023-02-16T07:21:18.731Z,1.90
2023-02-16T07:23:45.989Z,1.90
2023-02-16T07:26:13.313Z,2.00
2023-02-16T07:28:40.570Z,2.00
2023-02-16T07:31:13.785Z,2.00
2023-02-16T07:33:41.286Z,2.20
2023-02-16T07:36:09.950Z,2.30
2023-02-16T07:38:37.257Z,2.40
2023-02-16T07:41:07.744Z,2.50
2023-02-16T07:43:36.909Z,2.70
2023-02-16T07:46:04.213Z,2.90
2023-02-16T07:48:31.817Z,2.90
2023-02-16T07:50:59.062Z,3.10
2023-02-16T07:53:26.227Z,3.20
2023-02-16T07:55:53.311Z,3.40
2023-02-16T07:58:29.346Z,3.50
2023-02-16T08:01:15.466Z,3.60
2023-02-16T08:03:43.293Z,3.80
2023-02-16T08:06:10.938Z,3.90
2023-02-16T08:08:39.072Z,3.90
2023-02-16T08:11:18.022Z,4.00
2023-02-16T08:13:47.007Z,4.10
2023-02-16T08:16:25.923Z,4.20
2023-02-16T08:18:55.473Z,4.40
2023-02-16T08:21:25.000Z,4.50
2023-02-16T08:24:05.071Z,4.60
2023-02-16T08:26:41.113Z,4.70
2023-02-16T08:29:10.311Z,4.90
2023-02-16T08:31:38.686Z,5.00
2023-02-16T08:34:10.592Z,5.10
2023-02-16T08:36:43.935Z,5.30
2023-02-16T08:39:20.779Z,5.40
2023-02-16T08:41:49.959Z,5.60
2023-02-16T08:44:18.846Z,5.50
2023-02-16T08:46:51.123Z,5.60
2023-02-16T08:49:24.772Z,5.80
2023-02-16T08:51:58.921Z,6.00
2023-02-16T08:54:30.628Z,6.00
2023-02-16T08:57:04.979Z,6.10
2023-02-16T08:59:37.521Z,6.30
2023-02-16T09:02:09.971Z,6.50
2023-02-16T09:04:41.741Z,6.60
2023-02-16T09:07:13.334Z,6.60
2023-02-16T09:09:44.773Z,6.60
2023-02-16T09:12:16.837Z,6.70
2023-02-16T09:14:48.510Z,6.80
2023-02-16T09:17:20.591Z,7.00
2023-02-16T09:19:52.625Z,7.20
2023-02-16T09:22:24.695Z,7.30
2023-02-16T09:24:57.076Z,7.30
2023-02-16T09:27:29.827Z,7.50
2023-02-16T09:30:01.602Z,7.50
2023-02-16T09:32:34.984Z,7.60
2023-02-16T09:35:07.478Z,7.80
2023-02-16T09:37:34.551Z,7.90
2023-02-16T09:40:08.184Z,8.10
2023-02-16T09:42:57.102Z,8.00
2023-02-16T09:45:27.107Z,8.10
2023-02-16T09:47:56.681Z,8.20
2023-02-16T09:50:52.265Z,8.30
2023-02-16T09:53:30.312Z,8.50
2023-02-16T09:56:15.608Z,8.60
2023-02-16T09:58:56.459Z,8.70
2023-02-16T10:01:35.427Z,8.80
2023-02-16T10:04:21.352Z,9.00
2023-02-16T10:07:17.004Z,9.10
2023-02-16T10:09:49.234Z,9.30
2023-02-16T10:12:32.734Z,9.40
2023-02-16T10:15:09.520Z,9.50
2023-02-16T10:17:37.822Z,9.60
2023-02-16T10:20:24.741Z,9.70
2023-02-16T10:23:23.283Z,9.80
2023-02-16T10:26:00.743Z,9.80
2023-02-16T10:28:41.146Z,10.00
2023-02-16T10:31:21.146Z,10.00
2023-02-16T10:34:24.301Z,10.10
2023-02-16T10:37:15.894Z,10.30
2023-02-16T10:39:57.816Z,10.30
2023-02-16T10:42:30.704Z,10.40
2023-02-16T10:45:16.339Z,10.60
2023-02-16T10:47:45.449Z,10.60
2023-02-16T10:50:37.976Z,10.80
2023-02-16T10:53:18.931Z,11.00
2023-02-16T10:55:46.014Z,11.20
2023-02-16T10:58:22.874Z,11.30
2023-02-16T11:01:28.408Z,11.30
2023-02-16T11:03:55.804Z,11.40
2023-02-16T11:06:29.250Z,11.40
2023-02-16T11:09:01.864Z,11.40
2023-02-16T11:11:39.776Z,11.50
2023-02-16T11:14:25.043Z,11.60
2023-02-16T11:17:12.751Z,11.50
2023-02-16T11:19:47.980Z,11.60
2023-02-16T11:22:44.572Z,11.80
2023-02-16T11:25:24.681Z,11.80
2023-02-16T11:27:59.796Z,11.80
2023-02-16T11:30:33.865Z,11.90
2023-02-16T11:33:03.687Z,12.00
2023-02-16T11:35:41.227Z,12.10
2023-02-16T11:38:27.064Z,12.30
2023-02-16T11:40:54.615Z,12.40
2023-02-16T11:43:22.235Z,12.50
2023-02-16T11:46:07.817Z,12.60
2023-02-16T11:48:35.233Z,12.70
2023-02-16T11:51:10.952Z,12.70
2023-02-16T11:53:42.998Z,12.80
2023-02-16T11:56:10.817Z,12.80
2023-02-16T11:58:38.076Z,12.80
2023-02-16T12:01:29.193Z,12.90
2023-02-16T12:04:21.442Z,12.70
2023-02-16T12:06:59.479Z,13.00
2023-02-16T12:09:46.178Z,13.00
2023-02-16T12:12:30.777Z,13.00
2023-02-16T12:15:19.683Z,13.00
2023-02-16T12:18:16.502Z,13.00
2023-02-16T12:20:53.306Z,13.20
2023-02-16T12:23:39.080Z,13.20
2023-02-16T12:26:17.820Z,13.40
2023-02-16T12:29:01.717Z,13.40
2023-02-16T12:31:47.587Z,13.40
2023-02-16T12:34:33.509Z,13.40
2023-02-16T12:37:04.586Z,13.60
2023-02-16T12:39:46.051Z,13.70
2023-02-16T12:42:50.067Z,13.80
2023-02-16T12:45:22.207Z,13.80
2023-02-16T12:48:15.292Z,13.90
2023-02-16T12:50:44.579Z,14.10
2023-02-16T12:53:14.794Z,14.20
2023-02-16T12:56:20.858Z,14.30
2023-02-16T12:58:53.605Z,14.10
2023-02-16T13:01:33.995Z,14.10
2023-02-16T13:04:24.308Z,14.10
2023-02-16T13:07:18.529Z,14.20
2023-02-16T13:10:16.393Z,14.40
2023-02-16T13:13:17.956Z,14.40
2023-02-16T13:15:56.841Z,14.40
2023-02-16T13:18:32.752Z,14.60
2023-02-16T13:21:49.071Z,14.70
2023-02-16T13:24:29.668Z,14.60
2023-02-16T13:27:07.111Z,14.50
2023-02-16T13:29:52.861Z,14.50
2023-02-16T13:32:43.850Z,14.60
2023-02-16T13:35:41.338Z,14.60
2023-02-16T13:38:51.197Z,14.50
2023-02-16T13:41:18.212Z,14.40
2023-02-16T13:43:57.038Z,14.60
2023-02-16T13:46:42.921Z,14.70
2023-02-16T13:49:40.520Z,14.60
2023-02-16T13:52:09.043Z,14.60
2023-02-16T13:54:43.950Z,14.60
2023-02-16T13:57:18.612Z,14.60
2023-02-16T13:59:58.579Z,14.70
2023-02-16T14:02:55.226Z,14.70
2023-02-16T14:05:31.434Z,14.80
2023-02-16T14:08:20.174Z,14.70
2023-02-16T14:10:56.336Z,14.90
2023-02-16T14:13:38.927Z,14.90
2023-02-16T14:16:24.553Z,14.90
2023-02-16T14:19:20.756Z,14.90
2023-02-16T14:21:54.555Z,14.90
2023-02-16T14:24:41.158Z,14.90
2023-02-16T14:27:15.103Z,14.90
2023-02-16T14:30:03.569Z,14.90
2023-02-16T14:32:38.707Z,14.70
2023-02-16T14:35:38.198Z,14.80
2023-02-16T14:38:29.902Z,14.70
2023-02-16T14:41:05.913Z,14.60
2023-02-16T14:43:48.446Z,14.50
2023-02-16T14:46:55.939Z,14.40
2023-02-16T14:50:10.344Z,14.30
2023-02-16T14:53:08.857Z,14.30
2023-02-16T14:56:12.073Z,14.40
2023-02-16T14:58:58.234Z,14.30
2023-02-16T15:01:26.299Z,14.30
2023-02-16T15:04:00.787Z,14.30
2023-02-16T15:06:47.510Z,14.30
2023-02-16T15:09:33.309Z,14.20
2023-02-16T15:12:24.217Z,14.10
2023-02-16T15:15:03.556Z,14.00
2023-02-16T15:17:47.865Z,14.00
2023-02-16T15:20:42.224Z,13.90
2023-02-16T15:23:34.571Z,13.90
2023-02-16T15:26:17.812Z,13.80
2023-02-16T15:28:56.897Z,13.80
2023-02-16T15:31:42.020Z,13.70
2023-02-16T15:34:30.394Z,13.50
2023-02-16T15:37:03.922Z,13.40
2023-02-16T15:39:46.431Z,13.30
2023-02-16T15:42:26.402Z,13.30
2023-02-16T15:44:56.387Z,13.20
2023-02-16T15:47:26.268Z,13.10
2023-02-16T15:49:54.329Z,13.00
2023-02-16T15:52:33.835Z,12.80
2023-02-16T15:55:02.643Z,12.60
2023-02-16T15:57:38.992Z,12.50
2023-02-16T16:00:21.864Z,12.40
2023-02-16T16:02:51.359Z,12.40
2023-02-16T16:05:25.504Z,12.30
2023-02-16T16:07:54.707Z,12.10
2023-02-16T16:10:26.327Z,12.00
2023-02-16T16:12:58.960Z,11.80
2023-02-16T16:15:29.160Z,11.70
2023-02-16T16:17:59.997Z,11.40
2023-02-16T16:20:42.372Z,11.30
2023-02-16T16:23:15.856Z,11.10
2023-02-16T16:25:46.211Z,10.90
2023-02-16T16:28:32.658Z,10.90
2023-02-16T16:31:17.485Z,10.70
2023-02-16T16:34:05.269Z,10.50
2023-02-16T16:36:37.105Z,10.30
2023-02-16T16:39:19.394Z,10.10
2023-02-16T16:42:08.088Z,9.90
2023-02-16T16:44:38.099Z,9.90
2023-02-16T16:47:27.983Z,9.70
2023-02-16T16:50:03.281Z,9.60
2023-02-16T16:52:44.205Z,9.50
2023-02-16T16:55:21.606Z,9.30
2023-02-16T16:57:53.818Z,9.30
2023-02-16T17:00:23.296Z,9.20
2023-02-16T17:02:50.380Z,9.10
2023-02-16T17:05:18.781Z,8.90
2023-02-16T17:07:49.270Z,8.80
2023-02-16T17:10:19.041Z,8.70
2023-02-16T17:12:51.184Z,8.70
2023-02-16T17:15:44.209Z,8.60
2023-02-16T17:18:19.059Z,8.50
2023-02-16T17:20:47.333Z,8.50
2023-02-16T17:23:16.391Z,8.40
2023-02-16T17:25:44.485Z,8.30
2023-02-16T17:28:13.087Z,8.20
2023-02-16T17:30:40.264Z,8.10
2023-02-16T17:33:07.959Z,8.10
2023-02-16T17:35:37.964Z,8.00
2023-02-16T17:38:19.201Z,8.00
2023-02-16T17:40:51.048Z,7.90
2023-02-16T17:43:19.448Z,7.90
2023-02-16T17:45:47.291Z,7.80
2023-02-16T17:48:24.537Z,7.70
2023-02-16T17:50:51.927Z,7.60
2023-02-16T17:53:22.200Z,7.60
2023-02-16T17:55:51.989Z,7.60
2023-02-16T17:58:20.054Z,7.50
2023-02-16T18:00:47.462Z,7.50
2023-02-16T18:03:14.772Z,7.40
2023-02-16T18:06:36.141Z,7.40
2023-02-16T18:09:04.219Z,7.30
2023-02-16T18:11:31.901Z,7.30
2023-02-16T18:13:59.019Z,7.30
2023-02-16T18:16:27.373Z,7.20
2023-02-16T18:18:54.790Z,7.10
2023-02-16T18:21:21.907Z,7.10
2023-02-16T18:23:49.560Z,7.00
2023-02-16T18:26:17.282Z,6.90
2023-02-16T18:28:45.218Z,6.90
2023-02-16T18:31:13.242Z,6.90
2023-02-16T18:33:40.694Z,6.80
2023-02-16T18:36:08.340Z,6.80
2023-02-16T18:38:35.584Z,6.80
2023-02-16T18:41:02.763Z,6.80
2023-02-16T18:43:29.951Z,6.70
2023-02-16T18:45:57.389Z,6.70
2023-02-16T18:48:24.538Z,6.70
2023-02-16T18:50:51.762Z,6.60
2023-02-16T18:53:18.940Z,6.60
2023-02-16T18:55:46.158Z,6.60
2023-02-16T18:58:15.019Z,6.60
2023-02-16T19:00:42.167Z,6.50
2023-02-16T19:03:09.993Z,6.50
2023-02-16T19:05:37.344Z,6.50
2023-02-16T19:08:04.685Z,6.50
2023-02-16T19:10:32.807Z,6.40
2023-02-16T19:13:01.331Z,6.40
2023-02-16T19:15:29.468Z,6.30
2023-02-16T19:17:56.600Z,6.30
2023-02-16T19:20:24.060Z,6.30
2023-02-16T19:22:51.279Z,6.30
2023-02-16T19:25:18.432Z,6.20
2023-02-16T19:27:45.696Z,6.20
2023-02-16T19:30:13.662Z,6.10
2023-02-16T19:32:41.414Z,6.20
2023-02-16T19:35:12.358Z,6.10
2023-02-16T19:37:39.841Z,6.10
2023-02-16T19:40:11.647Z,6.00
2023-02-16T19:42:39.566Z,6.00
2023-02-16T19:45:07.445Z,6.00
2023-02-16T19:47:34.487Z,6.00
2023-02-16T19:50:02.077Z,5.90
2023-02-16T19:52:29.234Z,5.90
2023-02-16T19:54:56.351Z,5.80
2023-02-16T19:57:23.525Z,5.80
2023-02-16T19:59:50.676Z,5.70
2023-02-16T20:02:18.013Z,5.70
2023-02-16T20:04:45.176Z,5.70
2023-02-16T20:07:12.360Z,5.70
2023-02-16T20:09:39.866Z,5.60
2023-02-16T20:12:07.200Z,5.60
2023-02-16T20:14:34.410Z,5.60
2023-02-16T20:17:01.667Z,5.50
2023-02-16T20:19:28.727Z,5.60
2023-02-16T20:21:55.880Z,5.50
2023-02-16T20:24:22.927Z,5.40
2023-02-16T20:26:52.205Z,5.40
2023-02-16T20:29:20.981Z,5.30
2023-02-16T20:31:55.454Z,5.20
2023-02-16T20:34:25.190Z,5.20
2023-02-16T20:36:52.541Z,5.10
2023-02-16T20:39:20.352Z,5.10
2023-02-16T20:41:47.473Z,5.00
2023-02-16T20:44:15.825Z,5.00
2023-02-16T20:46:43.422Z,5.00
2023-02-16T20:49:10.700Z,5.00
2023-02-16T20:51:40.226Z,5.00
2023-02-16T20:54:08.811Z,5.00
2023-02-16T20:56:35.943Z,5.00
2023-02-16T20:59:08.466Z,4.90
2023-02-16T21:01:37.611Z,4.90
2023-02-16T21:04:07.352Z,4.90
2023-02-16T21:06:35.639Z,4.90
2023-02-16T21:09:04.062Z,4.90
2023-02-16T21:11:31.774Z,4.80
2023-02-16T21:14:00.160Z,4.80
2023-02-16T21:16:27.285Z,4.80
2023-02-16T21:18:55.513Z,4.80
2023-02-16T21:21:23.041Z,4.80
2023-02-16T21:23:54.296Z,4.80
2023-02-16T21:26:24.891Z,4.80
2023-02-16T21:28:58.059Z,4.80
2023-02-16T21:31:28.990Z,4.70
2023-02-16T21:33:57.478Z,4.70
2023-02-16T21:36:26.867Z,4.70
2023-02-16T21:38:55.204Z,4.70
2023-02-16T21:41:26.299Z,4.60
2023-02-16T21:44:08.840Z,4.60
2023-02-16T21:46:47.695Z,4.60
2023-02-16T21:49:17.330Z,4.60
2023-02-16T21:51:45.539Z,4.60
2023-02-16T21:54:18.328Z,4.60
2023-02-16T21:56:50.407Z,4.60
2023-02-16T21:59:19.920Z,4.60
2023-02-16T22:01:51.505Z,4.60
2023-02-16T22:04:22.637Z,4.50
2023-02-16T22:06:51.282Z,4.50
2023-02-16T22:09:20.921Z,4.50
2023-02-16T22:11:49.048Z,4.50
2023-02-16T22:14:17.432Z,4.40
2023-02-16T22:16:46.251Z,4.40
2023-02-16T22:19:15.791Z,4.40
2023-02-16T22:21:44.226Z,4.30
2023-02-16T22:24:15.187Z,4.30
2023-02-16T22:26:43.014Z,4.20
2023-02-16T22:29:11.021Z,4.20
2023-02-16T22:31:38.751Z,4.20
2023-02-16T22:34:08.625Z,4.10
2023-02-16T22:36:36.862Z,4.10
2023-02-16T22:39:04.888Z,4.10
2023-02-16T22:41:33.741Z,4.10
2023-02-16T22:44:01.336Z,4.00
2023-02-16T22:46:29.656Z,4.00
2023-02-16T22:49:02.123Z,4.00
2023-02-16T22:51:31.050Z,4.00
2023-02-16T22:54:00.005Z,4.00
2023-02-16T22:56:27.852Z,4.00
2023-02-16T22:58:57.616Z,4.00
2023-02-16T23:01:28.719Z,3.90
2023-02-16T23:03:57.832Z,3.90
2023-02-16T23:06:34.637Z,3.90
2023-02-16T23:09:05.826Z,3.80
2023-02-16T23:11:33.491Z,3.80
2023-02-16T23:14:00.964Z,3.70
2023-02-16T23:16:28.801Z,3.70
2023-02-16T23:18:59.611Z,3.70
2023-02-16T23:21:32.105Z,3.70
2023-02-16T23:24:00.067Z,3.70
2023-02-16T23:26:29.251Z,3.80
2023-02-16T23:28:58.675Z,3.80
2023-02-16T23:31:25.952Z,3.90
2023-02-16T23:33:55.935Z,3.90
2023-02-16T23:36:23.056Z,3.90
2023-02-16T23:38:50.146Z,3.90
2023-02-16T23:41:17.286Z,3.80
2023-02-16T23:43:44.780Z,3.80
2023-02-16T23:46:12.306Z,3.70
2023-02-16T23:48:39.551Z,3.70
2023-02-16T23:51:06.791Z,3.60
2023-02-16T23:53:34.223Z,3.60
2023-02-16T23:56:08.916Z,3.60
2023-02-16T23:58:41.369Z,3.50
